Time;durP1;ratioP1;P1;durP2;ratioP2;P2;SDS_P1;SDS_P2;PMS_P1;PMS_P2;Temp;Humidity;BMP_temperature;BMP_pressure;BME280_temperature;BME280_humidity;BME280_pressure;Samples;Min_cycle;Max_cycle;Signal;HPM_P1;HPM_P2
2021/12/13 00:00:11;;;;;;;;;;;14.00;99.90;;;;;;5054890;28;1910;-54
2021/12/13 00:02:55;;;;;;;;;;;14.00;99.90;;;;;;5055793;28;866;-54
2021/12/13 00:05:27;;;;;;;;;;;14.00;99.90;;;;;;5052106;28;1194;-54
2021/12/13 00:07:56;;;;;;;;;;;14.00;99.90;;;;;;5056001;28;858;-54
2021/12/13 00:10:23;;;;;;;;;;;14.00;99.90;;;;;;5055913;28;822;-54
2021/12/13 00:12:56;;;;;;;;;;;14.00;99.90;;;;;;5055632;28;816;-54
2021/12/13 00:15:25;;;;;;;;;;;14.00;99.90;;;;;;5055538;28;1172;-54
2021/12/13 00:17:52;;;;;;;;;;;14.00;99.90;;;;;;5055336;28;939;-54
2021/12/13 00:20:27;;;;;;;;;;;14.00;99.90;;;;;;5050077;28;1977;-54
2021/12/13 00:22:55;;;;;;;;;;;14.00;99.90;;;;;;5054561;28;866;-54
2021/12/13 00:25:23;;;;;;;;;;;13.90;99.90;;;;;;5055527;28;911;-54
2021/12/13 00:27:53;;;;;;;;;;;13.90;99.90;;;;;;5055731;28;810;-54
2021/12/13 00:30:25;;;;;;;;;;;13.90;99.90;;;;;;5054907;28;1134;-54
2021/12/13 00:33:06;;;;;;;;;;;13.90;99.90;;;;;;5055673;28;834;-55
2021/12/13 00:35:41;;;;;;;;;;;13.90;99.90;;;;;;5055243;28;897;-54
2021/12/13 00:38:10;;;;;;;;;;;13.90;99.90;;;;;;5054862;28;887;-54
2021/12/13 00:40:46;;;;;;;;;;;13.80;99.90;;;;;;5055323;28;1914;-54
2021/12/13 00:43:19;;;;;;;;;;;13.80;99.90;;;;;;5054624;28;918;-54
2021/12/13 00:45:59;;;;;;;;;;;13.80;99.90;;;;;;5055460;28;939;-54
2021/12/13 00:48:27;;;;;;;;;;;13.80;99.90;;;;;;5032261;28;908;-54
2021/12/13 00:51:03;;;;;;;;;;;13.80;99.90;;;;;;5054747;28;1002;-54
2021/12/13 00:53:33;;;;;;;;;;;13.80;99.90;;;;;;5053090;28;869;-54
2021/12/13 00:55:59;;;;;;;;;;;13.80;99.90;;;;;;5059012;28;912;-54
2021/12/13 00:58:25;;;;;;;;;;;13.80;99.90;;;;;;5024482;28;1002;-54
2021/12/13 01:00:54;;;;;;;;;;;13.80;99.90;;;;;;5058883;28;1910;-54
2021/12/13 01:03:24;;;;;;;;;;;13.80;99.90;;;;;;5058943;28;939;-55
2021/12/13 01:05:50;;;;;;;;;;;13.70;99.90;;;;;;5040588;28;901;-53
2021/12/13 01:08:34;;;;;;;;;;;13.70;99.90;;;;;;5058824;28;825;-53
2021/12/13 01:11:19;;;;;;;;;;;13.70;99.90;;;;;;5058773;28;892;-52
2021/12/13 01:14:03;;;;;;;;;;;13.70;99.90;;;;;;5058738;28;841;-52
2021/12/13 01:16:38;;;;;;;;;;;13.70;99.90;;;;;;5053811;28;868;-52
2021/12/13 01:22:19;;;;;;;;;;;13.70;99.90;;;;;;5058273;28;742;-52
2021/12/13 01:25:15;;;;;;;;;;;13.70;99.90;;;;;;5023980;28;1005;-52
2021/12/13 01:27:41;;;;;;;;;;;13.70;99.90;;;;;;5057755;28;1578;-52
2021/12/13 01:30:11;;;;;;;;;;;13.70;99.90;;;;;;5040042;28;1297;-52
2021/12/13 01:32:39;;;;;;;;;;;13.70;99.90;;;;;;5040800;28;1249;-52
2021/12/13 01:35:09;;;;;;;;;;;13.70;99.90;;;;;;5040610;28;920;-52
2021/12/13 01:37:35;;;;;;;;;;;13.70;99.90;;;;;;5007569;28;998;-52
2021/12/13 01:40:12;;;;;;;;;;;13.70;99.90;;;;;;5058127;28;1906;-52
2021/12/13 01:42:40;;;;;;;;;;;13.70;99.90;;;;;;5053761;28;831;-52
2021/12/13 01:45:10;;;;;;;;;;;13.60;99.90;;;;;;5058404;28;860;-52
2021/12/13 01:47:46;;;;;;;;;;;13.60;99.90;;;;;;5058231;28;1627;-52
2021/12/13 01:50:21;;;;;;;;;;;13.60;99.90;;;;;;5057520;28;1134;-52
2021/12/13 01:52:50;;;;;;;;;;;13.60;99.90;;;;;;5057866;28;833;-52
2021/12/13 01:55:16;;;;;;;;;;;13.60;99.90;;;;;;5057496;28;819;-52
2021/12/13 01:57:55;;;;;;;;;;;13.60;99.90;;;;;;5057950;28;911;-52
2021/12/13 02:00:43;;;;;;;;;;;13.60;99.90;;;;;;5057820;28;1969;-52
2021/12/13 02:03:15;;;;;;;;;;;13.60;99.90;;;;;;5049829;28;1289;-52
2021/12/13 02:05:46;;;;;;;;;;;13.60;99.90;;;;;;5054041;28;854;-52
2021/12/13 02:08:14;;;;;;;;;;;13.60;99.90;;;;;;5057701;28;801;-52
2021/12/13 02:11:01;;;;;;;;;;;13.60;99.90;;;;;;5057695;28;1124;-52
2021/12/13 02:13:37;;;;;;;;;;;13.60;99.90;;;;;;5057592;28;825;-52
2021/12/13 02:18:52;;;;;;;;;;;13.60;99.90;;;;;;5053854;28;782;-52
2021/12/13 02:21:29;;;;;;;;;;;13.50;99.90;;;;;;5057086;28;1898;-52
2021/12/13 02:23:57;;;;;;;;;;;13.50;99.90;;;;;;5056816;28;893;-52
2021/12/13 02:26:26;;;;;;;;;;;13.50;99.90;;;;;;5039590;28;880;-52
2021/12/13 02:28:55;;;;;;;;;;;13.50;99.90;;;;;;5056644;28;893;-52
2021/12/13 02:31:24;;;;;;;;;;;13.50;99.90;;;;;;5057015;28;935;-52
2021/12/13 02:33:52;;;;;;;;;;;13.50;99.90;;;;;;5057176;28;832;-52
2021/12/13 02:36:23;;;;;;;;;;;13.50;99.90;;;;;;5057153;28;891;-52
2021/12/13 02:38:51;;;;;;;;;;;13.50;99.90;;;;;;5057392;28;818;-52
2021/12/13 02:41:19;;;;;;;;;;;13.50;99.90;;;;;;5056982;28;1898;-52
2021/12/13 02:43:48;;;;;;;;;;;13.50;99.90;;;;;;5039709;28;1035;-52
2021/12/13 02:46:16;;;;;;;;;;;13.50;99.90;;;;;;5035657;28;951;-52
2021/12/13 02:48:51;;;;;;;;;;;13.50;99.90;;;;;;5053090;28;1015;-52
2021/12/13 02:51:35;;;;;;;;;;;13.50;99.90;;;;;;5053923;28;930;-52
2021/12/13 02:54:06;;;;;;;;;;;13.40;99.90;;;;;;5056676;28;1021;-52
2021/12/13 02:56:51;;;;;;;;;;;13.40;99.90;;;;;;5057041;28;828;-52
2021/12/13 02:59:21;;;;;;;;;;;13.40;99.90;;;;;;5056360;28;1907;-52
2021/12/13 03:01:54;;;;;;;;;;;13.40;99.90;;;;;;5052418;28;872;-52
2021/12/13 03:04:23;;;;;;;;;;;13.40;99.90;;;;;;5056629;28;837;-52
2021/12/13 03:06:56;;;;;;;;;;;13.40;99.90;;;;;;5056286;28;789;-52
2021/12/13 03:09:25;;;;;;;;;;;13.40;99.90;;;;;;5056549;28;909;-52
2021/12/13 03:11:53;;;;;;;;;;;13.40;99.90;;;;;;5056546;28;1159;-52
2021/12/13 03:14:22;;;;;;;;;;;13.40;99.90;;;;;;5056455;28;837;-52
2021/12/13 03:17:07;;;;;;;;;;;13.40;99.90;;;;;;5055679;28;727;-52
2021/12/13 03:19:36;;;;;;;;;;;13.40;99.90;;;;;;5035798;28;1910;-52
2021/12/13 03:22:22;;;;;;;;;;;13.40;99.90;;;;;;5055595;28;971;-52
2021/12/13 03:25:08;;;;;;;;;;;13.40;99.90;;;;;;5051627;28;1142;-52
2021/12/13 03:27:48;;;;;;;;;;;13.40;99.90;;;;;;5056232;28;907;-52
2021/12/13 03:30:28;;;;;;;;;;;13.40;99.90;;;;;;5056168;28;1017;-52
2021/12/13 03:32:56;;;;;;;;;;;13.30;99.90;;;;;;5055756;28;821;-52
2021/12/13 03:35:40;;;;;;;;;;;13.30;99.90;;;;;;5050873;28;805;-52
2021/12/13 03:38:08;;;;;;;;;;;13.40;99.90;;;;;;5053003;28;872;-52
2021/12/13 03:40:35;;;;;;;;;;;13.30;99.90;;;;;;5056041;28;1898;-52
2021/12/13 03:43:05;;;;;;;;;;;13.30;99.90;;;;;;5056096;28;860;-52
2021/12/13 03:45:43;;;;;;;;;;;13.30;99.90;;;;;;5056164;28;1002;-52
2021/12/13 03:48:10;;;;;;;;;;;13.30;99.90;;;;;;5055943;28;908;-52
2021/12/13 03:50:38;;;;;;;;;;;13.30;99.90;;;;;;5055475;28;1027;-52
2021/12/13 03:53:07;;;;;;;;;;;13.30;99.90;;;;;;5055677;28;864;-52
2021/12/13 03:55:34;;;;;;;;;;;13.30;99.90;;;;;;5056069;28;892;-52
2021/12/13 03:58:04;;;;;;;;;;;13.30;99.90;;;;;;5055125;28;989;-52
2021/12/13 04:00:33;;;;;;;;;;;13.30;99.90;;;;;;5055298;28;1910;-52
2021/12/13 04:03:00;;;;;;;;;;;13.30;99.90;;;;;;5055760;28;936;-52
2021/12/13 04:05:28;;;;;;;;;;;13.30;99.90;;;;;;5055616;28;887;-52
2021/12/13 04:07:56;;;;;;;;;;;13.30;99.90;;;;;;5055626;28;1579;-52
2021/12/13 04:10:41;;;;;;;;;;;13.30;99.90;;;;;;5055722;28;892;-52
2021/12/13 04:13:12;;;;;;;;;;;13.30;99.90;;;;;;5046816;28;1336;-52
2021/12/13 04:16:10;;;;;;;;;;;13.20;99.90;;;;;;5055842;28;1641;-52
2021/12/13 04:19:06;;;;;;;;;;;13.20;99.90;;;;;;5055380;28;2033;-52
2021/12/13 04:21:46;;;;;;;;;;;13.20;99.90;;;;;;5036538;28;1975;-54
2021/12/13 04:24:14;;;;;;;;;;;13.20;99.90;;;;;;5004600;28;1316;-54
2021/12/13 04:26:46;;;;;;;;;;;13.20;99.90;;;;;;5056468;28;900;-54
2021/12/13 04:29:17;;;;;;;;;;;13.20;99.90;;;;;;5059577;28;923;-54
2021/12/13 04:31:43;;;;;;;;;;;13.20;99.90;;;;;;5042065;28;980;-54
2021/12/13 04:34:10;;;;;;;;;;;13.20;99.90;;;;;;5059562;28;1045;-54
2021/12/13 04:36:46;;;;;;;;;;;13.20;99.90;;;;;;5059367;28;877;-54
2021/12/13 04:39:18;;;;;;;;;;;13.20;99.90;;;;;;5025271;28;1170;-54
2021/12/13 04:41:44;;;;;;;;;;;13.20;99.90;;;;;;5058804;28;1898;-54
2021/12/13 04:44:12;;;;;;;;;;;13.20;99.90;;;;;;5059262;28;824;-55
2021/12/13 04:46:39;;;;;;;;;;;13.20;99.90;;;;;;5059235;28;947;-54
2021/12/13 04:49:07;;;;;;;;;;;13.20;99.90;;;;;;5053761;28;1228;-54
2021/12/13 04:51:42;;;;;;;;;;;13.20;99.90;;;;;;5058496;28;1065;-54
2021/12/13 04:54:09;;;;;;;;;;;13.20;99.90;;;;;;5059308;28;884;-54
2021/12/13 04:56:35;;;;;;;;;;;13.20;99.90;;;;;;5059181;28;797;-54
2021/12/13 04:59:03;;;;;;;;;;;13.20;99.90;;;;;;5059002;28;842;-54
2021/12/13 05:01:29;;;;;;;;;;;13.20;99.90;;;;;;5058871;28;1945;-54
2021/12/13 05:03:58;;;;;;;;;;;13.20;99.90;;;;;;5058281;28;1036;-54
2021/12/13 05:06:31;;;;;;;;;;;13.10;99.90;;;;;;5058838;28;873;-54
2021/12/13 05:08:59;;;;;;;;;;;13.10;99.90;;;;;;5058038;28;1049;-54
2021/12/13 05:11:31;;;;;;;;;;;13.10;99.90;;;;;;5054738;28;929;-54
2021/12/13 05:13:59;;;;;;;;;;;13.10;99.90;;;;;;5058716;28;961;-54
2021/12/13 05:16:46;;;;;;;;;;;13.10;99.90;;;;;;5058637;28;834;-54
2021/12/13 05:19:14;;;;;;;;;;;13.10;99.90;;;;;;5058244;28;873;-54
2021/12/13 05:21:42;;;;;;;;;;;13.10;99.90;;;;;;5040488;28;1934;-54
2021/12/13 05:24:22;;;;;;;;;;;13.10;99.90;;;;;;5055993;28;885;-54
2021/12/13 05:27:00;;;;;;;;;;;13.10;99.90;;;;;;5057224;28;817;-54
2021/12/13 05:29:44;;;;;;;;;;;13.10;99.90;;;;;;5058423;28;794;-54
2021/12/13 05:32:15;;;;;;;;;;;13.10;99.90;;;;;;5058393;28;924;-54
2021/12/13 05:34:47;;;;;;;;;;;13.10;99.90;;;;;;5057963;28;1001;-54
2021/12/13 05:37:14;;;;;;;;;;;13.10;99.90;;;;;;5057835;28;892;-55
2021/12/13 05:39:53;;;;;;;;;;;13.10;99.90;;;;;;5057477;28;916;-54
2021/12/13 05:42:19;;;;;;;;;;;13.10;99.90;;;;;;5040508;28;935;-54
2021/12/13 05:44:45;;;;;;;;;;;13.10;99.90;;;;;;5058079;28;860;-54
2021/12/13 05:47:21;;;;;;;;;;;13.10;99.90;;;;;;5058140;28;841;-54
2021/12/13 05:49:49;;;;;;;;;;;13.10;99.90;;;;;;5040063;28;999;-54
2021/12/13 05:52:17;;;;;;;;;;;13.10;99.90;;;;;;5057944;28;928;-54
2021/12/13 05:54:45;;;;;;;;;;;13.10;99.90;;;;;;5054868;28;1390;-54
2021/12/13 05:57:16;;;;;;;;;;;13.10;99.90;;;;;;5058011;28;1093;-54
2021/12/13 06:00:02;;;;;;;;;;;13.10;99.90;;;;;;5057884;28;758;-54
2021/12/13 06:02:31;;;;;;;;;;;13.10;99.90;;;;;;5056860;28;855;-54
2021/12/13 06:05:15;;;;;;;;;;;13.20;99.90;;;;;;5057630;28;829;-55
2021/12/13 06:07:42;;;;;;;;;;;13.20;99.90;;;;;;5053780;28;921;-55
2021/12/13 06:10:13;;;;;;;;;;;13.30;99.90;;;;;;5053260;28;1452;-55
2021/12/13 06:12:48;;;;;;;;;;;13.40;99.90;;;;;;5057222;28;853;-54
2021/12/13 06:15:17;;;;;;;;;;;13.50;99.90;;;;;;5057615;28;876;-56
2021/12/13 06:17:49;;;;;;;;;;;13.60;99.90;;;;;;5057183;28;927;-54
2021/12/13 06:20:19;;;;;;;;;;;13.70;99.90;;;;;;5057158;28;1914;-55
2021/12/13 06:22:46;;;;;;;;;;;13.70;99.90;;;;;;5057360;28;888;-54
2021/12/13 06:25:15;;;;;;;;;;;13.70;99.90;;;;;;5039464;28;910;-54
2021/12/13 06:27:46;;;;;;;;;;;13.80;99.90;;;;;;5057363;28;867;-54
2021/12/13 06:30:31;;;;;;;;;;;13.80;99.90;;;;;;5057374;28;936;-54
2021/12/13 06:33:04;;;;;;;;;;;13.80;99.90;;;;;;5052756;28;912;-55
2021/12/13 06:35:34;;;;;;;;;;;13.90;99.90;;;;;;5057429;28;888;-54
2021/12/13 06:38:20;;;;;;;;;;;13.90;99.90;;;;;;5056975;28;959;-55
2021/12/13 06:40:56;;;;;;;;;;;13.90;99.90;;;;;;5022735;28;1977;-54
2021/12/13 06:43:40;;;;;;;;;;;13.90;99.90;;;;;;5039804;28;1160;-54
2021/12/13 06:46:22;;;;;;;;;;;13.90;99.90;;;;;;5057268;28;893;-55
2021/12/13 06:49:00;;;;;;;;;;;14.00;99.90;;;;;;5056884;28;1145;-54
2021/12/13 06:51:47;;;;;;;;;;;14.00;99.90;;;;;;5055481;28;864;-54
2021/12/13 06:54:31;;;;;;;;;;;14.10;99.90;;;;;;5050841;28;968;-55
2021/12/13 06:57:16;;;;;;;;;;;14.20;99.90;;;;;;5056203;28;907;-55
2021/12/13 07:00:00;;;;;;;;;;;14.20;99.90;;;;;;5056808;28;927;-55
2021/12/13 07:02:28;;;;;;;;;;;14.20;99.90;;;;;;5056895;28;872;-54
2021/12/13 07:04:56;;;;;;;;;;;14.30;99.90;;;;;;5056276;28;972;-54
2021/12/13 07:07:25;;;;;;;;;;;14.20;99.90;;;;;;5056418;28;877;-54
2021/12/13 07:09:53;;;;;;;;;;;14.30;99.90;;;;;;5056778;28;817;-54
2021/12/13 07:12:19;;;;;;;;;;;14.30;99.90;;;;;;5056786;28;912;-54
2021/12/13 07:14:46;;;;;;;;;;;14.30;99.90;;;;;;5056522;28;864;-54
2021/12/13 07:17:15;;;;;;;;;;;14.40;99.90;;;;;;5056063;28;1238;-54
2021/12/13 07:19:42;;;;;;;;;;;14.40;99.90;;;;;;5054348;28;920;-54
2021/12/13 07:22:15;;;;;;;;;;;14.40;99.90;;;;;;5038576;28;1914;-54
2021/12/13 07:24:47;;;;;;;;;;;14.40;99.90;;;;;;5055946;28;832;-54
2021/12/13 07:27:18;;;;;;;;;;;14.40;99.90;;;;;;5056549;28;824;-54
2021/12/13 07:29:48;;;;;;;;;;;14.50;99.90;;;;;;5056227;28;880;-54
2021/12/13 07:32:19;;;;;;;;;;;14.50;99.90;;;;;;5055799;28;921;-54
2021/12/13 07:34:47;;;;;;;;;;;14.50;99.90;;;;;;5056385;28;810;-54
2021/12/13 07:37:15;;;;;;;;;;;14.50;99.90;;;;;;5055785;28;936;-54
2021/12/13 07:39:43;;;;;;;;;;;14.50;99.90;;;;;;5056256;28;806;-54
2021/12/13 07:42:13;;;;;;;;;;;14.50;99.90;;;;;;5055832;28;1910;-54
2021/12/13 07:44:57;;;;;;;;;;;14.50;99.90;;;;;;5055955;28;861;-54
2021/12/13 07:47:25;;;;;;;;;;;14.50;99.90;;;;;;5055083;28;790;-54
2021/12/13 07:49:52;;;;;;;;;;;14.50;99.90;;;;;;5055546;28;1034;-54
2021/12/13 07:52:23;;;;;;;;;;;14.50;99.90;;;;;;5037789;28;920;-55
2021/12/13 07:54:49;;;;;;;;;;;14.50;99.90;;;;;;5055895;28;805;-54
2021/12/13 07:57:18;;;;;;;;;;;14.50;99.90;;;;;;5055535;28;892;-54
2021/12/13 07:59:46;;;;;;;;;;;14.40;99.90;;;;;;5055351;28;907;-54
2021/12/13 08:02:15;;;;;;;;;;;14.40;99.90;;;;;;5050952;28;1910;-54
2021/12/13 08:04:42;;;;;;;;;;;14.40;99.90;;;;;;5055765;28;797;-54
2021/12/13 08:07:26;;;;;;;;;;;14.40;99.90;;;;;;5054490;28;914;-55
2021/12/13 08:10:06;;;;;;;;;;;14.30;99.90;;;;;;5019667;28;857;-54
2021/12/13 08:12:46;;;;;;;;;;;14.30;99.90;;;;;;5055316;28;882;-56
2021/12/13 08:15:30;;;;;;;;;;;14.30;99.90;;;;;;5055178;28;1002;-55
2021/12/13 08:18:01;;;;;;;;;;;14.20;99.90;;;;;;5055636;28;893;-55
2021/12/13 08:20:30;;;;;;;;;;;14.20;99.90;;;;;;5052585;28;1956;-55
2021/12/13 08:22:57;;;;;;;;;;;14.20;99.90;;;;;;5055726;28;846;-54
2021/12/13 08:25:26;;;;;;;;;;;14.20;99.90;;;;;;5055639;28;869;-53
2021/12/13 08:27:57;;;;;;;;;;;14.20;99.90;;;;;;5052276;28;920;-55
2021/12/13 08:30:25;;;;;;;;;;;14.10;99.90;;;;;;5053041;28;845;-56
2021/12/13 08:32:57;;;;;;;;;;;14.10;99.90;;;;;;5055712;28;933;-54
2021/12/13 08:35:23;;;;;;;;;;;14.10;99.90;;;;;;5055414;28;944;-54
2021/12/13 08:37:56;;;;;;;;;;;14.10;99.90;;;;;;5055364;28;849;-53
2021/12/13 08:40:26;;;;;;;;;;;14.10;99.90;;;;;;5054820;28;1890;-54
2021/12/13 08:42:53;;;;;;;;;;;14.10;99.90;;;;;;5055399;28;884;-56
2021/12/13 08:45:40;;;;;;;;;;;14.10;99.90;;;;;;5055372;28;809;-53
2021/12/13 08:48:15;;;;;;;;;;;14.10;99.90;;;;;;5014989;28;954;-52
2021/12/13 08:50:45;;;;;;;;;;;14.00;99.90;;;;;;5014347;28;1233;-54
2021/12/13 08:53:35;;;;;;;;;;;14.00;99.90;;;;;;4998449;28;878;-54
2021/12/13 08:56:05;;;;;;;;;;;14.00;99.90;;;;;;5033259;28;1035;-54
2021/12/13 08:58:32;;;;;;;;;;;14.00;99.90;;;;;;5014464;28;972;-54
2021/12/13 09:01:09;;;;;;;;;;;14.00;99.90;;;;;;5033753;28;1965;-53
2021/12/13 09:03:37;;;;;;;;;;;14.00;99.90;;;;;;5033358;28;944;-53
2021/12/13 09:06:09;;;;;;;;;;;14.00;99.90;;;;;;5033228;28;940;-53
2021/12/13 09:08:37;;;;;;;;;;;14.10;99.90;;;;;;5033430;28;840;-53
2021/12/13 09:11:23;;;;;;;;;;;14.10;99.90;;;;;;5033753;28;981;-55
2021/12/13 09:14:10;;;;;;;;;;;14.10;99.90;;;;;;5034428;28;952;-54
2021/12/13 09:16:53;;;;;;;;;;;14.10;99.90;;;;;;5020649;28;912;-52
2021/12/13 09:19:26;;;;;;;;;;;14.10;99.90;;;;;;5034927;28;946;-52
2021/12/13 09:21:56;;;;;;;;;;;14.10;99.90;;;;;;5038486;28;1965;-54
2021/12/13 09:24:29;;;;;;;;;;;14.10;99.90;;;;;;5038354;28;892;-52
2021/12/13 09:27:05;;;;;;;;;;;14.20;99.90;;;;;;5038649;28;821;-52
2021/12/13 09:29:31;;;;;;;;;;;14.20;99.90;;;;;;5018666;28;1140;-52
2021/12/13 09:31:57;;;;;;;;;;;14.20;99.90;;;;;;5038052;28;914;-52
2021/12/13 09:34:24;;;;;;;;;;;14.20;99.90;;;;;;5038588;28;907;-54
2021/12/13 09:36:54;;;;;;;;;;;14.20;99.90;;;;;;5038145;28;841;-54
2021/12/13 09:39:41;;;;;;;;;;;14.20;99.90;;;;;;5038463;28;877;-54
2021/12/13 09:42:30;;;;;;;;;;;14.20;99.90;;;;;;5038287;28;1898;-54
2021/12/13 09:45:01;;;;;;;;;;;14.20;99.90;;;;;;5038394;28;856;-54
2021/12/13 09:47:45;;;;;;;;;;;14.20;99.90;;;;;;5038078;28;895;-54
2021/12/13 09:50:18;;;;;;;;;;;14.20;99.90;;;;;;5024159;28;1182;-52
2021/12/13 09:53:03;;;;;;;;;;;14.20;99.90;;;;;;5037201;28;849;-52
2021/12/13 09:55:31;;;;;;;;;;;14.20;99.90;;;;;;5036000;28;1325;-52
2021/12/13 09:58:02;;;;;;;;;;;14.20;99.90;;;;;;5035979;28;1428;-54
2021/12/13 10:00:43;;;;;;;;;;;14.20;99.90;;;;;;5038353;28;1965;-54
2021/12/13 10:03:12;;;;;;;;;;;14.20;99.90;;;;;;5017945;28;869;-54
2021/12/13 10:05:41;;;;;;;;;;;14.20;99.90;;;;;;5037082;28;1289;-52
2021/12/13 10:08:11;;;;;;;;;;;14.20;99.90;;;;;;5032087;28;915;-52
2021/12/13 10:11:03;;;;;;;;;;;14.20;99.90;;;;;;5032142;28;832;-52
2021/12/13 10:13:31;;;;;;;;;;;14.20;99.90;;;;;;5035973;28;1358;-52
2021/12/13 10:15:59;;;;;;;;;;;14.20;99.90;;;;;;5037747;28;939;-52
2021/12/13 10:18:28;;;;;;;;;;;14.20;99.90;;;;;;5037784;28;892;-52
2021/12/13 10:20:58;;;;;;;;;;;14.20;99.90;;;;;;5037612;28;1933;-54
2021/12/13 10:23:36;;;;;;;;;;;14.20;99.90;;;;;;5037734;28;853;-52
2021/12/13 10:26:05;;;;;;;;;;;14.20;99.90;;;;;;5037200;28;809;-54
2021/12/13 10:28:33;;;;;;;;;;;14.20;99.90;;;;;;5037705;28;861;-52
2021/12/13 10:31:02;;;;;;;;;;;14.20;99.90;;;;;;5037610;28;887;-55
2021/12/13 10:33:29;;;;;;;;;;;14.30;99.90;;;;;;5037331;28;816;-54
2021/12/13 10:35:56;;;;;;;;;;;14.20;99.90;;;;;;5037152;28;825;-54
2021/12/13 10:38:41;;;;;;;;;;;14.20;99.90;;;;;;5036099;28;832;-54
2021/12/13 10:41:09;;;;;;;;;;;14.20;99.90;;;;;;5037171;28;1906;-54
2021/12/13 10:43:41;;;;;;;;;;;14.20;99.90;;;;;;5037149;28;821;-52
2021/12/13 10:46:11;;;;;;;;;;;14.20;99.90;;;;;;5037303;28;908;-52
2021/12/13 10:48:44;;;;;;;;;;;14.20;99.90;;;;;;5037133;28;1203;-52
2021/12/13 10:51:12;;;;;;;;;;;14.20;99.90;;;;;;5056757;28;868;-52
2021/12/13 10:53:40;;;;;;;;;;;14.20;99.90;;;;;;5038974;28;911;-52
2021/12/13 10:56:11;;;;;;;;;;;14.20;99.90;;;;;;5056839;28;920;-52
2021/12/13 10:58:42;;;;;;;;;;;14.20;99.90;;;;;;5057094;28;828;-52
2021/12/13 11:01:14;;;;;;;;;;;14.20;99.90;;;;;;5056966;28;1905;-52
2021/12/13 11:03:41;;;;;;;;;;;14.20;99.90;;;;;;5056772;28;877;-55
2021/12/13 11:06:10;;;;;;;;;;;14.10;99.90;;;;;;5056460;28;852;-52
2021/12/13 11:08:41;;;;;;;;;;;14.10;99.90;;;;;;5056342;28;1121;-52
2021/12/13 11:11:13;;;;;;;;;;;14.10;99.90;;;;;;5056566;28;812;-52
2021/12/13 11:13:39;;;;;;;;;;;14.10;99.90;;;;;;5056552;28;848;-52
2021/12/13 11:16:18;;;;;;;;;;;14.10;99.90;;;;;;5055976;28;1027;-52
2021/12/13 11:18:45;;;;;;;;;;;14.10;99.90;;;;;;5056348;28;885;-55
2021/12/13 11:21:20;;;;;;;;;;;14.00;99.90;;;;;;5055367;28;1902;-55
2021/12/13 11:23:48;;;;;;;;;;;14.00;99.90;;;;;;5053588;28;899;-52
2021/12/13 11:26:16;;;;;;;;;;;14.00;99.90;;;;;;5053446;28;916;-52
2021/12/13 11:28:43;;;;;;;;;;;14.00;99.90;;;;;;5053541;28;885;-52
2021/12/13 11:31:16;;;;;;;;;;;14.00;99.90;;;;;;5052974;28;1004;-52
2021/12/13 11:33:42;;;;;;;;;;;14.00;99.90;;;;;;5036571;28;1312;-54
2021/12/13 11:36:28;;;;;;;;;;;14.00;99.90;;;;;;5055362;28;961;-55
2021/12/13 11:39:13;;;;;;;;;;;14.10;99.90;;;;;;5052028;28;896;-54
2021/12/13 11:41:58;;;;;;;;;;;14.10;99.90;;;;;;5050848;28;1986;-55
2021/12/13 11:44:43;;;;;;;;;;;14.10;99.90;;;;;;5036782;28;897;-56
2021/12/13 11:47:29;;;;;;;;;;;14.10;99.90;;;;;;5052769;28;904;-55
2021/12/13 11:50:14;;;;;;;;;;;14.10;99.90;;;;;;5055103;28;1205;-53
2021/12/13 11:53:00;;;;;;;;;;;14.20;99.90;;;;;;5053199;28;1520;-52
2021/12/13 11:55:44;;;;;;;;;;;14.20;99.90;;;;;;5052027;28;1413;-55
2021/12/13 11:58:30;;;;;;;;;;;14.20;99.90;;;;;;5056060;28;988;-54
2021/12/13 12:01:04;;;;;;;;;;;14.30;99.90;;;;;;5055453;28;1911;-54
2021/12/13 12:03:50;;;;;;;;;;;14.30;99.90;;;;;;5055925;28;943;-53
2021/12/13 12:06:40;;;;;;;;;;;14.20;99.90;;;;;;5055696;28;868;-52
2021/12/13 12:09:29;;;;;;;;;;;14.30;99.90;;;;;;5055720;28;871;-52
2021/12/13 12:12:04;;;;;;;;;;;14.30;99.90;;;;;;5055787;28;844;-52
2021/12/13 12:14:33;;;;;;;;;;;14.30;99.90;;;;;;5054910;28;885;-52
2021/12/13 12:17:03;;;;;;;;;;;14.30;99.90;;;;;;5055625;28;864;-54
2021/12/13 12:19:40;;;;;;;;;;;14.30;99.90;;;;;;5051999;28;1125;-53
2021/12/13 12:22:07;;;;;;;;;;;14.30;99.90;;;;;;5055634;28;1910;-52
2021/12/13 12:24:39;;;;;;;;;;;14.30;99.90;;;;;;5038039;28;900;-52
2021/12/13 12:27:16;;;;;;;;;;;14.30;99.90;;;;;;5037985;28;885;-54
2021/12/13 12:29:44;;;;;;;;;;;14.30;99.90;;;;;;5050259;28;1117;-52
2021/12/13 12:32:16;;;;;;;;;;;14.30;99.90;;;;;;5055459;28;872;-52
2021/12/13 12:34:47;;;;;;;;;;;14.30;99.90;;;;;;5054829;28;929;-52
2021/12/13 12:37:38;;;;;;;;;;;14.30;99.90;;;;;;5054620;28;829;-54
2021/12/13 12:40:07;;;;;;;;;;;14.30;99.90;;;;;;5035636;28;1029;-54
2021/12/13 12:42:38;;;;;;;;;;;14.30;99.90;;;;;;5054992;28;1914;-54
2021/12/13 12:45:04;;;;;;;;;;;14.30;99.90;;;;;;5055623;28;961;-52
2021/12/13 12:47:33;;;;;;;;;;;14.30;99.90;;;;;;5055700;28;978;-52
2021/12/13 12:50:20;;;;;;;;;;;14.30;99.90;;;;;;5059112;28;1252;-52
2021/12/13 12:52:47;;;;;;;;;;;14.20;99.90;;;;;;5053700;28;894;-52
2021/12/13 12:55:16;;;;;;;;;;;14.20;99.90;;;;;;5059273;28;881;-52
2021/12/13 12:57:44;;;;;;;;;;;14.20;99.90;;;;;;5059430;28;868;-54
2021/12/13 13:00:11;;;;;;;;;;;14.20;99.90;;;;;;5041388;28;834;-52
2021/12/13 13:02:39;;;;;;;;;;;14.20;99.90;;;;;;5041342;28;1918;-54
2021/12/13 13:05:08;;;;;;;;;;;14.20;99.90;;;;;;5058974;28;857;-54
2021/12/13 13:07:35;;;;;;;;;;;14.20;99.90;;;;;;5040911;28;870;-52
2021/12/13 13:13:10;;;;;;;;;;;14.20;99.90;;;;;;5022009;28;1314;-54
2021/12/13 13:15:39;;;;;;;;;;;14.20;99.90;;;;;;5053527;28;904;-54
2021/12/13 13:18:07;;;;;;;;;;;14.20;99.90;;;;;;5058968;28;868;-54
2021/12/13 13:20:38;;;;;;;;;;;14.20;99.90;;;;;;5040437;28;909;-53
2021/12/13 13:23:05;;;;;;;;;;;14.20;99.90;;;;;;5058398;28;1910;-52
2021/12/13 13:25:34;;;;;;;;;;;14.20;99.90;;;;;;5024079;28;921;-53
2021/12/13 13:28:02;;;;;;;;;;;14.20;99.90;;;;;;5058509;28;891;-54
2021/12/13 13:30:34;;;;;;;;;;;14.20;99.90;;;;;;5058152;28;890;-52
2021/12/13 13:33:00;;;;;;;;;;;14.20;99.90;;;;;;5058324;28;912;-54
2021/12/13 13:35:27;;;;;;;;;;;14.20;99.90;;;;;;5058394;28;868;-54
2021/12/13 13:37:53;;;;;;;;;;;14.20;99.90;;;;;;5058477;28;945;-53
2021/12/13 13:40:22;;;;;;;;;;;14.20;99.90;;;;;;5058414;28;899;-54
2021/12/13 13:42:53;;;;;;;;;;;14.20;99.90;;;;;;5058141;28;1973;-52
2021/12/13 13:45:55;;;;;;;;;;;14.20;99.90;;;;;;5057836;28;976;-52
2021/12/13 13:48:21;;;;;;;;;;;14.30;99.90;;;;;;4957591;28;965;-52
2021/12/13 13:50:50;;;;;;;;;;;14.30;99.90;;;;;;5037543;28;1329;-52
2021/12/13 13:53:27;;;;;;;;;;;14.30;99.90;;;;;;5058167;28;873;-52
2021/12/13 13:55:57;;;;;;;;;;;14.30;99.90;;;;;;5054507;28;860;-54
2021/12/13 13:58:34;;;;;;;;;;;14.30;99.90;;;;;;5058028;28;872;-54
2021/12/13 14:01:23;;;;;;;;;;;14.30;99.90;;;;;;5039605;28;1893;-54
2021/12/13 14:03:54;;;;;;;;;;;14.30;99.90;;;;;;5041566;28;1667;-54
2021/12/13 14:06:22;;;;;;;;;;;14.30;99.90;;;;;;5057689;28;911;-54
2021/12/13 14:08:55;;;;;;;;;;;14.30;99.90;;;;;;5057628;28;895;-54
2021/12/13 14:11:21;;;;;;;;;;;14.30;99.90;;;;;;5057797;28;833;-52
2021/12/13 14:13:48;;;;;;;;;;;14.30;99.90;;;;;;5057680;28;958;-52
2021/12/13 14:16:23;;;;;;;;;;;14.30;99.90;;;;;;5057629;28;951;-54
2021/12/13 14:18:50;;;;;;;;;;;14.30;99.90;;;;;;5056834;28;941;-54
2021/12/13 14:21:18;;;;;;;;;;;14.30;99.90;;;;;;5057491;28;1898;-54
2021/12/13 14:23:48;;;;;;;;;;;14.30;99.90;;;;;;5056385;28;1037;-54
2021/12/13 14:26:33;;;;;;;;;;;14.30;99.90;;;;;;5051125;28;1044;-54
2021/12/13 14:29:08;;;;;;;;;;;14.30;99.90;;;;;;5056150;28;1019;-52
2021/12/13 14:31:41;;;;;;;;;;;14.30;99.90;;;;;;5054540;28;1273;-52
2021/12/13 14:34:08;;;;;;;;;;;14.80;99.90;;;;;;5056991;28;866;-52
2021/12/13 14:36:35;;;;;;;;;;;15.80;99.90;;;;;;5056481;28;948;-52
2021/12/13 14:39:28;;;;;;;;;;;16.60;99.90;;;;;;5055544;28;1062;-52
2021/12/13 14:41:57;;;;;;;;;;;17.20;99.90;;;;;;5048501;28;1960;-52
2021/12/13 14:44:28;;;;;;;;;;;17.70;99.90;;;;;;5036264;28;1357;-52
2021/12/13 14:46:57;;;;;;;;;;;18.00;99.90;;;;;;5057373;28;887;-52
2021/12/13 14:49:31;;;;;;;;;;;18.20;99.90;;;;;;5056860;28;1156;-52
2021/12/13 14:52:11;;;;;;;;;;;18.20;99.90;;;;;;5039663;28;1374;-52
2021/12/13 14:54:38;;;;;;;;;;;18.40;99.90;;;;;;5053843;28;873;-54
2021/12/13 14:57:06;;;;;;;;;;;18.70;99.90;;;;;;5057059;28;879;-54
2021/12/13 14:59:34;;;;;;;;;;;18.90;99.90;;;;;;5057006;28;886;-54
2021/12/13 15:02:00;;;;;;;;;;;19.10;99.90;;;;;;5038820;28;1906;-54
2021/12/13 15:04:28;;;;;;;;;;;19.30;99.90;;;;;;5047840;28;1174;-54
2021/12/13 15:06:56;;;;;;;;;;;18.80;99.90;;;;;;5049009;28;987;-54
2021/12/13 15:09:25;;;;;;;;;;;18.20;99.90;;;;;;5056389;28;829;-53
2021/12/13 15:11:54;;;;;;;;;;;17.80;99.90;;;;;;5055208;28;936;-53
2021/12/13 15:14:27;;;;;;;;;;;17.60;99.90;;;;;;5056265;28;860;-53
2021/12/13 15:16:55;;;;;;;;;;;17.50;99.90;;;;;;5055579;28;965;-54
2021/12/13 15:19:22;;;;;;;;;;;17.40;99.90;;;;;;5056405;28;877;-54